createdAt,value
2018-07-23T00:00:43.224Z,96863.00
2018-07-23T00:03:27.335Z,96859.00
2018-07-23T00:06:08.789Z,96860.00
2018-07-23T00:08:50.188Z,96854.00
2018-07-23T00:11:32.084Z,96859.00
2018-07-23T00:14:14.206Z,96862.00
2018-07-23T00:16:56.740Z,96856.00
2018-07-23T00:19:38.195Z,96856.00
2018-07-23T00:22:19.644Z,96860.00
2018-07-23T00:25:01.871Z,96858.00
2018-07-23T00:27:43.511Z,96850.00
2018-07-23T00:30:26.223Z,96852.00
2018-07-23T00:33:08.027Z,96856.00
2018-07-23T00:35:49.535Z,96863.00
2018-07-23T00:38:32.105Z,96861.00
2018-07-23T00:41:14.150Z,96851.00
2018-07-23T00:43:56.590Z,96854.00
2018-07-23T00:46:38.176Z,96860.00
2018-07-23T00:49:20.282Z,96854.00
2018-07-23T00:52:02.330Z,96857.00
2018-07-23T00:54:47.801Z,96854.00
2018-07-23T00:57:29.234Z,96859.00
2018-07-23T01:00:10.685Z,96847.00
2018-07-23T01:02:52.983Z,96851.00
2018-07-23T01:05:36.216Z,96852.00
2018-07-23T01:08:17.645Z,96853.00
2018-07-23T01:10:59.242Z,96851.00
2018-07-23T01:13:40.612Z,96855.00
2018-07-23T01:16:23.066Z,96853.00
2018-07-23T01:19:04.852Z,96849.00
2018-07-23T01:21:46.311Z,96859.00
2018-07-23T01:24:27.852Z,96849.00
2018-07-23T01:27:09.424Z,96851.00
2018-07-23T01:29:50.926Z,96844.00
2018-07-23T01:32:32.528Z,96843.00
2018-07-23T01:35:14.047Z,96842.00
2018-07-23T01:37:57.335Z,96849.00
2018-07-23T01:40:38.924Z,96847.00
2018-07-23T01:43:20.551Z,96859.00
2018-07-23T01:46:01.952Z,96857.00
2018-07-23T01:48:43.377Z,96857.00
2018-07-23T01:51:24.979Z,96850.00
2018-07-23T01:54:06.408Z,96861.00
2018-07-23T01:56:47.936Z,96862.00
2018-07-23T02:02:54.120Z,96857.00
2018-07-23T02:05:35.573Z,96867.00
2018-07-23T02:08:17.100Z,96872.00
2018-07-23T02:10:59.264Z,96868.00
2018-07-23T02:13:40.783Z,96876.00
2018-07-23T02:16:23.441Z,96869.00
2018-07-23T02:19:05.057Z,96871.00
2018-07-23T02:21:46.498Z,96871.00
2018-07-23T02:24:27.823Z,96860.00
2018-07-23T02:27:09.276Z,96868.00
2018-07-23T02:29:52.439Z,96865.00
2018-07-23T02:32:34.048Z,96864.00
2018-07-23T02:35:15.623Z,96861.00
2018-07-23T02:37:57.065Z,96859.00
2018-07-23T02:40:38.651Z,96860.00
2018-07-23T02:43:21.130Z,96859.00
2018-07-23T02:46:02.709Z,96855.00
2018-07-23T02:48:44.046Z,96862.00
2018-07-23T02:51:26.139Z,96859.00
2018-07-23T02:54:07.540Z,96857.00
2018-07-23T02:56:50.933Z,96859.00
2018-07-23T02:59:32.808Z,96862.00
2018-07-23T03:02:14.263Z,96856.00
2018-07-23T03:04:55.737Z,96861.00
2018-07-23T03:07:37.346Z,96861.00
2018-07-23T03:10:19.736Z,96855.00
2018-07-23T03:13:01.184Z,96859.00
2018-07-23T03:15:42.797Z,96858.00
2018-07-23T03:18:24.830Z,96860.00
2018-07-23T03:21:06.420Z,96867.00
2018-07-23T03:23:48.001Z,96869.00
2018-07-23T03:26:29.647Z,96864.00
2018-07-23T03:29:11.466Z,96866.00
2018-07-23T03:31:54.770Z,96862.00
2018-07-23T03:34:36.220Z,96866.00
2018-07-23T03:37:17.604Z,96866.00
2018-07-23T03:39:59.461Z,96868.00
2018-07-23T03:42:41.079Z,96870.00
2018-07-23T03:45:23.415Z,96878.00
2018-07-23T03:48:04.839Z,96871.00
2018-07-23T03:50:46.523Z,96874.00
2018-07-23T03:53:27.988Z,96880.00
2018-07-23T03:56:09.325Z,96888.00
2018-07-23T03:58:52.626Z,96891.00
2018-07-23T04:01:34.035Z,96902.00
2018-07-23T04:04:17.494Z,96899.00
2018-07-23T04:06:59.189Z,96897.00
2018-07-23T04:09:40.861Z,96901.00
2018-07-23T04:12:23.741Z,96902.00
2018-07-23T04:15:05.828Z,96901.00
2018-07-23T04:18:03.906Z,96908.00
2018-07-23T04:20:45.493Z,96913.00
2018-07-23T04:23:27.044Z,96916.00
2018-07-23T04:26:09.163Z,96919.00
2018-07-23T04:28:51.446Z,96915.00
2018-07-23T04:31:33.088Z,96917.00
2018-07-23T04:34:14.571Z,96917.00
2018-07-23T04:36:56.028Z,96919.00
2018-07-23T04:39:37.728Z,96911.00
2018-07-23T04:42:20.615Z,96925.00
2018-07-23T04:45:02.653Z,96919.00
2018-07-23T04:47:44.290Z,96918.00
2018-07-23T04:50:25.798Z,96919.00
2018-07-23T04:53:07.430Z,96923.00
2018-07-23T04:55:49.712Z,96920.00
2018-07-23T04:58:31.200Z,96925.00
2018-07-23T05:01:12.754Z,96930.00
2018-07-23T05:03:54.706Z,96933.00
2018-07-23T05:06:36.353Z,96925.00
2018-07-23T05:09:17.876Z,96924.00
2018-07-23T05:12:00.442Z,96922.00
2018-07-23T05:14:42.622Z,96931.00
2018-07-23T05:17:24.841Z,96932.00
2018-07-23T05:20:07.216Z,96933.00
2018-07-23T05:22:49.489Z,96936.00
2018-07-23T05:25:31.195Z,96927.00
2018-07-23T05:28:12.806Z,96928.00
2018-07-23T05:30:55.508Z,96930.00
2018-07-23T05:33:39.957Z,96923.00
2018-07-23T05:36:22.437Z,96931.00
2018-07-23T05:39:08.192Z,96927.00
2018-07-23T05:41:50.907Z,96929.00
2018-07-23T05:44:32.442Z,96925.00
2018-07-23T05:47:14.064Z,96933.00
2018-07-23T05:49:55.555Z,96930.00
2018-07-23T05:52:37.080Z,96936.00
2018-07-23T05:55:19.590Z,96943.00
2018-07-23T05:58:02.290Z,96940.00
2018-07-23T06:00:43.828Z,96942.00
2018-07-23T06:03:25.440Z,96942.00
2018-07-23T06:06:07.116Z,96949.00
2018-07-23T06:08:49.818Z,96948.00
2018-07-23T06:11:32.215Z,96945.00
2018-07-23T06:14:15.264Z,96954.00
2018-07-23T06:16:56.692Z,96955.00
2018-07-23T06:19:38.301Z,96945.00
2018-07-23T06:22:20.805Z,96951.00
2018-07-23T06:25:02.238Z,96951.00
2018-07-23T06:27:44.425Z,96954.00
2018-07-23T06:30:25.942Z,96948.00
2018-07-23T06:33:12.891Z,96953.00
2018-07-23T06:35:54.923Z,96953.00
2018-07-23T06:38:37.176Z,96955.00
2018-07-23T06:41:23.711Z,96953.00
2018-07-23T06:44:05.868Z,96961.00
2018-07-23T06:46:47.335Z,96954.00
2018-07-23T06:49:29.465Z,96951.00
2018-07-23T06:52:11.127Z,96961.00
2018-07-23T06:54:53.493Z,96957.00
2018-07-23T06:57:38.596Z,96954.00
2018-07-23T07:00:25.638Z,96952.00
2018-07-23T07:03:07.431Z,96962.00
2018-07-23T07:05:49.640Z,96959.00
2018-07-23T07:08:31.166Z,96957.00
2018-07-23T07:11:12.612Z,96959.00
2018-07-23T07:13:54.672Z,96960.00
2018-07-23T07:16:36.124Z,96966.00
2018-07-23T07:19:17.653Z,96963.00
2018-07-23T07:21:59.228Z,96963.00
2018-07-23T07:24:40.535Z,96975.00
2018-07-23T07:27:22.399Z,96963.00
2018-07-23T07:30:06.167Z,96966.00
2018-07-23T07:32:48.326Z,96972.00
2018-07-23T07:35:30.240Z,96964.00
2018-07-23T07:38:15.328Z,96973.00
2018-07-23T07:40:58.225Z,96972.00
2018-07-23T07:43:40.525Z,96975.00
2018-07-23T07:46:23.699Z,96969.00
2018-07-23T07:49:05.012Z,96977.00
2018-07-23T07:51:46.540Z,96977.00
2018-07-23T07:54:28.029Z,96976.00
2018-07-23T07:57:09.535Z,96985.00
2018-07-23T07:59:52.484Z,96992.00
2018-07-23T08:02:34.075Z,96986.00
2018-07-23T08:05:17.623Z,96991.00
2018-07-23T08:07:59.534Z,96996.00
2018-07-23T08:10:41.038Z,96993.00
2018-07-23T08:13:24.042Z,96999.00
2018-07-23T08:16:05.662Z,97004.00
2018-07-23T08:18:48.024Z,97006.00
2018-07-23T08:21:29.960Z,97002.00
2018-07-23T08:24:11.363Z,97006.00
2018-07-23T08:26:53.663Z,97005.00
2018-07-23T08:29:35.457Z,97008.00
2018-07-23T08:32:17.076Z,97006.00
2018-07-23T08:34:59.353Z,97013.00
2018-07-23T08:37:41.273Z,97011.00
2018-07-23T08:40:25.039Z,97009.00
2018-07-23T08:43:06.766Z,97008.00
2018-07-23T08:45:49.560Z,97012.00
2018-07-23T08:48:31.827Z,97010.00
2018-07-23T08:51:13.581Z,97005.00
2018-07-23T08:53:55.196Z,97013.00
2018-07-23T08:56:36.692Z,97012.00
2018-07-23T08:59:18.907Z,97016.00
2018-07-23T09:02:00.778Z,97018.00
2018-07-23T09:04:42.931Z,97020.00
2018-07-23T09:07:25.237Z,97020.00
2018-07-23T09:10:07.028Z,97021.00
2018-07-23T09:12:49.576Z,97024.00
2018-07-23T09:15:31.068Z,97021.00
2018-07-23T09:18:12.655Z,97026.00
2018-07-23T09:20:54.583Z,97023.00
2018-07-23T09:23:36.099Z,97024.00
2018-07-23T09:26:17.532Z,97023.00
2018-07-23T09:28:59.412Z,97016.00
2018-07-23T09:31:41.046Z,97014.00
2018-07-23T09:34:23.941Z,97018.00
2018-07-23T09:37:05.452Z,97015.00
2018-07-23T09:39:49.065Z,97016.00
2018-07-23T09:42:31.011Z,97003.00
2018-07-23T09:45:12.468Z,97012.00
2018-07-23T09:47:56.123Z,97006.00
2018-07-23T09:50:39.845Z,97001.00
2018-07-23T09:53:23.348Z,96992.00
2018-07-23T09:56:04.949Z,97003.00
2018-07-23T09:58:47.017Z,97004.00
2018-07-23T10:01:30.043Z,97005.00
2018-07-23T10:04:11.525Z,97007.00
2018-07-23T10:06:55.013Z,97005.00
2018-07-23T10:09:36.664Z,96999.00
2018-07-23T10:12:18.131Z,96992.00
2018-07-23T10:14:59.936Z,96991.00
2018-07-23T10:17:41.345Z,96996.00
2018-07-23T10:20:24.635Z,96985.00
2018-07-23T10:23:06.097Z,96982.00
2018-07-23T10:25:47.716Z,96984.00
2018-07-23T10:28:29.351Z,96999.00
2018-07-23T10:31:12.237Z,96991.00
2018-07-23T10:33:54.694Z,96988.00
2018-07-23T10:36:36.159Z,96991.00
2018-07-23T10:39:17.591Z,96985.00
2018-07-23T10:41:59.590Z,96983.00
2018-07-23T10:44:41.400Z,96990.00
2018-07-23T10:47:24.427Z,96985.00
2018-07-23T10:50:05.978Z,96990.00
2018-07-23T10:52:52.352Z,96989.00
2018-07-23T10:55:34.343Z,96999.00
2018-07-23T10:58:16.004Z,96989.00
2018-07-23T11:00:58.672Z,96984.00
2018-07-23T11:03:40.155Z,96972.00
2018-07-23T11:06:24.244Z,96963.00
2018-07-23T11:09:08.304Z,96957.00
2018-07-23T11:11:53.361Z,96949.00
2018-07-23T11:14:35.036Z,96959.00
2018-07-23T11:17:16.678Z,96954.00
2018-07-23T11:20:00.427Z,96967.00
2018-07-23T11:22:42.136Z,96963.00
2018-07-23T11:25:39.177Z,96958.00
2018-07-23T11:28:06.520Z,96958.00
2018-07-23T11:30:47.960Z,96973.00
2018-07-23T11:33:29.528Z,96961.00
2018-07-23T11:36:11.608Z,96961.00
2018-07-23T11:38:55.589Z,96954.00
2018-07-23T11:41:37.483Z,96957.00
2018-07-23T11:44:20.812Z,96954.00
2018-07-23T11:47:05.968Z,96952.00
2018-07-23T11:49:50.412Z,96958.00
2018-07-23T11:52:32.226Z,96949.00
2018-07-23T11:55:14.317Z,96949.00
2018-07-23T11:57:56.448Z,96949.00
2018-07-23T12:00:37.954Z,96950.00
2018-07-23T12:03:20.509Z,96949.00
2018-07-23T12:06:02.319Z,96949.00
2018-07-23T12:08:43.899Z,96948.00
2018-07-23T12:11:25.452Z,96940.00
2018-07-23T12:14:07.809Z,96934.00
2018-07-23T12:16:50.409Z,96928.00
2018-07-23T12:19:31.932Z,96928.00
2018-07-23T12:22:14.389Z,96928.00
2018-07-23T12:24:57.135Z,96920.00
2018-07-23T12:27:40.053Z,96931.00
2018-07-23T12:30:23.293Z,96939.00
2018-07-23T12:33:04.889Z,96929.00
2018-07-23T12:35:46.393Z,96934.00
2018-07-23T12:38:27.760Z,96931.00
2018-07-23T12:41:09.520Z,96933.00
2018-07-23T12:43:54.215Z,96933.00
2018-07-23T12:46:35.783Z,96936.00
2018-07-23T12:49:17.917Z,96936.00
2018-07-23T12:51:59.460Z,96940.00
2018-07-23T12:54:42.223Z,96930.00
2018-07-23T12:57:24.570Z,96943.00
2018-07-23T13:00:07.138Z,96934.00
2018-07-23T13:02:49.563Z,96932.00
2018-07-23T13:05:33.205Z,96928.00
2018-07-23T13:08:15.308Z,96931.00
2018-07-23T13:10:57.061Z,96927.00
2018-07-23T13:13:38.479Z,96928.00
2018-07-23T13:16:22.215Z,96921.00
2018-07-23T13:19:04.961Z,96933.00
2018-07-23T13:21:47.675Z,96924.00
2018-07-23T13:24:30.388Z,96926.00
2018-07-23T13:27:12.191Z,96916.00
2018-07-23T13:29:58.013Z,96928.00
2018-07-23T13:32:39.528Z,96918.00
2018-07-23T13:35:23.980Z,96922.00
2018-07-23T13:38:06.668Z,96915.00
2018-07-23T13:40:48.421Z,96915.00
2018-07-23T13:43:30.209Z,96918.00
2018-07-23T13:46:13.241Z,96919.00
2018-07-23T13:48:55.446Z,96924.00
2018-07-23T13:51:37.772Z,96926.00
2018-07-23T13:54:20.714Z,96918.00
2018-07-23T13:57:03.986Z,96920.00
2018-07-23T13:59:48.303Z,96923.00
2018-07-23T14:02:29.851Z,96925.00
2018-07-23T14:05:11.532Z,96935.00
2018-07-23T14:07:54.728Z,96920.00
2018-07-23T14:10:36.360Z,96932.00
2018-07-23T14:13:19.607Z,96924.00
2018-07-23T14:16:05.017Z,96921.00
2018-07-23T14:18:46.523Z,96919.00
2018-07-23T14:21:28.325Z,96924.00
2018-07-23T14:24:09.647Z,96920.00
2018-07-23T14:26:52.846Z,96920.00
2018-07-23T14:29:35.503Z,96929.00
2018-07-23T14:32:17.323Z,96926.00
2018-07-23T14:34:59.543Z,96923.00
2018-07-23T14:37:43.016Z,96918.00
2018-07-23T14:40:25.558Z,96916.00
2018-07-23T14:43:07.363Z,96910.00
2018-07-23T14:45:53.472Z,96930.00
2018-07-23T14:48:35.270Z,96928.00
2018-07-23T14:51:17.040Z,96924.00
2018-07-23T14:53:58.810Z,96920.00
2018-07-23T14:56:40.377Z,96926.00
2018-07-23T14:59:22.652Z,96921.00
2018-07-23T15:02:04.388Z,96921.00
2018-07-23T15:04:45.991Z,96921.00
2018-07-23T15:07:27.408Z,96924.00
2018-07-23T15:10:08.964Z,96928.00
2018-07-23T15:12:51.459Z,96920.00
2018-07-23T15:15:33.224Z,96920.00
2018-07-23T15:18:15.070Z,96926.00
2018-07-23T15:20:57.639Z,96921.00
2018-07-23T15:23:39.281Z,96920.00
2018-07-23T15:26:21.640Z,96921.00
2018-07-23T15:29:03.386Z,96921.00
2018-07-23T15:31:46.087Z,96928.00
2018-07-23T15:34:27.740Z,96917.00
2018-07-23T15:37:09.484Z,96927.00
2018-07-23T15:39:51.695Z,96919.00
2018-07-23T15:42:34.832Z,96926.00
2018-07-23T15:45:17.192Z,96924.00
2018-07-23T15:47:59.995Z,96925.00
2018-07-23T15:50:41.744Z,96926.00
2018-07-23T15:53:24.703Z,96917.00
2018-07-23T15:56:07.046Z,96928.00
2018-07-23T15:58:48.652Z,96926.00
2018-07-23T16:01:31.805Z,96943.00
2018-07-23T16:04:13.584Z,96945.00
2018-07-23T16:06:55.781Z,96937.00
2018-07-23T16:09:37.752Z,96942.00
2018-07-23T16:12:21.554Z,96946.00
2018-07-23T16:15:04.355Z,96950.00
2018-07-23T16:17:45.994Z,96940.00
2018-07-23T16:20:27.322Z,96946.00
2018-07-23T16:23:09.827Z,96946.00
2018-07-23T16:25:53.264Z,96951.00
2018-07-23T16:28:34.977Z,96958.00
2018-07-23T16:31:16.847Z,96963.00
2018-07-23T16:33:58.588Z,96959.00
2018-07-23T16:36:40.151Z,96963.00
2018-07-23T16:39:22.345Z,96955.00
2018-07-23T16:42:06.085Z,96958.00
2018-07-23T16:44:47.778Z,96964.00
2018-07-23T16:47:29.352Z,96960.00
2018-07-23T16:50:12.407Z,96955.00
2018-07-23T16:52:55.008Z,96969.00
2018-07-23T16:55:36.669Z,96967.00
2018-07-23T16:58:18.172Z,96959.00
2018-07-23T17:01:00.687Z,96963.00
2018-07-23T17:03:42.589Z,96973.00
2018-07-23T17:06:24.691Z,96968.00
2018-07-23T17:09:12.268Z,96971.00
2018-07-23T17:11:54.947Z,96973.00
2018-07-23T17:14:36.498Z,96974.00
2018-07-23T17:17:19.197Z,96983.00
2018-07-23T17:20:01.675Z,96987.00
2018-07-23T17:22:43.019Z,96997.00
2018-07-23T17:25:26.217Z,96998.00
2018-07-23T17:28:07.983Z,96992.00
2018-07-23T17:30:49.577Z,97009.00
2018-07-23T17:33:31.205Z,97004.00
2018-07-23T17:36:12.997Z,97004.00
2018-07-23T17:38:56.176Z,97007.00
2018-07-23T17:41:37.932Z,97007.00
2018-07-23T17:44:19.471Z,97013.00
2018-07-23T17:47:01.201Z,97012.00
2018-07-23T17:49:42.675Z,97008.00
2018-07-23T17:52:24.895Z,97011.00
2018-07-23T17:55:07.987Z,97015.00
2018-07-23T17:57:52.370Z,97026.00
2018-07-23T18:00:34.535Z,97033.00
2018-07-23T18:03:17.311Z,97040.00
2018-07-23T18:06:00.445Z,97041.00
2018-07-23T18:08:42.142Z,97042.00
2018-07-23T18:11:24.381Z,97046.00
2018-07-23T18:14:06.077Z,97055.00
2018-07-23T18:16:47.519Z,97050.00
2018-07-23T18:19:30.859Z,97057.00
2018-07-23T18:22:12.303Z,97055.00
2018-07-23T18:24:55.407Z,97063.00
2018-07-23T18:27:37.447Z,97072.00
2018-07-23T18:30:19.107Z,97062.00
2018-07-23T18:33:01.327Z,97071.00
2018-07-23T18:35:42.962Z,97074.00
2018-07-23T18:38:24.891Z,97072.00
2018-07-23T18:41:06.311Z,97079.00
2018-07-23T18:43:47.960Z,97081.00
2018-07-23T18:46:31.150Z,97082.00
2018-07-23T18:49:31.510Z,97087.00
2018-07-23T18:52:14.628Z,97081.00
2018-07-23T18:54:58.367Z,97097.00
2018-07-23T18:57:40.539Z,97107.00
2018-07-23T19:00:22.312Z,97109.00
2018-07-23T19:03:09.252Z,97114.00
2018-07-23T19:05:53.126Z,97107.00
2018-07-23T19:08:35.225Z,97111.00
2018-07-23T19:11:16.834Z,97106.00
2018-07-23T19:13:58.585Z,97114.00
2018-07-23T19:16:41.043Z,97109.00
2018-07-23T19:19:22.799Z,97111.00
2018-07-23T19:22:05.085Z,97110.00
2018-07-23T19:24:46.685Z,97105.00
2018-07-23T19:27:28.644Z,97111.00
2018-07-23T19:30:10.663Z,97106.00
2018-07-23T19:32:52.136Z,97110.00
2018-07-23T19:35:34.144Z,97115.00
2018-07-23T19:38:17.774Z,97117.00
2018-07-23T19:40:59.816Z,97114.00
2018-07-23T19:43:41.744Z,97125.00
2018-07-23T19:46:23.449Z,97121.00
2018-07-23T19:49:05.885Z,97115.00
2018-07-23T19:51:47.403Z,97115.00
2018-07-23T19:54:28.999Z,97109.00
2018-07-23T19:57:11.022Z,97117.00
2018-07-23T19:59:52.755Z,97115.00
2018-07-23T20:02:34.958Z,97119.00
2018-07-23T20:05:17.216Z,97115.00
2018-07-23T20:07:59.082Z,97111.00
2018-07-23T20:10:40.809Z,97106.00
2018-07-23T20:13:22.375Z,97108.00
2018-07-23T20:16:06.154Z,97110.00
2018-07-23T20:18:48.619Z,97116.00
2018-07-23T20:21:30.219Z,97110.00
2018-07-23T20:24:12.111Z,97115.00
2018-07-23T20:26:53.411Z,97118.00
2018-07-23T20:29:36.808Z,97119.00
2018-07-23T20:32:19.067Z,97122.00
2018-07-23T20:35:00.469Z,97120.00
2018-07-23T20:37:42.715Z,97123.00
2018-07-23T20:40:25.224Z,97124.00
2018-07-23T20:43:07.666Z,97120.00
2018-07-23T20:45:49.434Z,97127.00
2018-07-23T20:48:30.987Z,97121.00
2018-07-23T20:51:13.646Z,97127.00
2018-07-23T20:53:56.031Z,97123.00
2018-07-23T20:56:37.774Z,97117.00
2018-07-23T20:59:19.075Z,97121.00
2018-07-23T21:02:00.740Z,97119.00
2018-07-23T21:04:42.870Z,97113.00
2018-07-23T21:07:24.340Z,97121.00
2018-07-23T21:10:07.718Z,97113.00
2018-07-23T21:12:49.278Z,97109.00
2018-07-23T21:15:36.154Z,97121.00
2018-07-23T21:18:17.789Z,97118.00
2018-07-23T21:20:59.326Z,97119.00
2018-07-23T21:23:42.803Z,97134.00
2018-07-23T21:26:24.124Z,97116.00
2018-07-23T21:29:05.739Z,97119.00
2018-07-23T21:31:47.298Z,97120.00
2018-07-23T21:34:28.866Z,97121.00
2018-07-23T21:37:12.640Z,97125.00
2018-07-23T21:39:55.930Z,97129.00
2018-07-23T21:42:37.536Z,97126.00
2018-07-23T21:45:20.910Z,97134.00
2018-07-23T21:48:02.797Z,97125.00
2018-07-23T21:50:46.969Z,97123.00
2018-07-23T21:53:28.514Z,97126.00
2018-07-23T21:56:10.891Z,97126.00
2018-07-23T21:58:52.298Z,97133.00
2018-07-23T22:01:33.845Z,97127.00
2018-07-23T22:04:17.032Z,97135.00
2018-07-23T22:06:58.579Z,97127.00
2018-07-23T22:09:40.190Z,97126.00
2018-07-23T22:12:21.645Z,97141.00
2018-07-23T22:15:03.178Z,97131.00
2018-07-23T22:17:45.779Z,97134.00
2018-07-23T22:20:27.399Z,97124.00
2018-07-23T22:23:09.842Z,97133.00
2018-07-23T22:25:55.656Z,97127.00
2018-07-23T22:28:38.176Z,97133.00
2018-07-23T22:31:20.824Z,97124.00
2018-07-23T22:34:03.359Z,97131.00
2018-07-23T22:36:45.882Z,97126.00
2018-07-23T22:39:27.477Z,97122.00
2018-07-23T22:42:14.187Z,97130.00
2018-07-23T22:44:55.602Z,97117.00
2018-07-23T22:47:37.126Z,97123.00
2018-07-23T22:50:19.342Z,97129.00
2018-07-23T22:53:01.768Z,97117.00
2018-07-23T22:55:44.458Z,97122.00
2018-07-23T22:58:27.210Z,97117.00
2018-07-23T23:01:08.573Z,97129.00
2018-07-23T23:03:50.128Z,97120.00
2018-07-23T23:06:31.484Z,97117.00
2018-07-23T23:09:13.020Z,97118.00
2018-07-23T23:11:54.589Z,97109.00
2018-07-23T23:14:35.874Z,97111.00
2018-07-23T23:17:17.716Z,97104.00
2018-07-23T23:19:59.135Z,97107.00
2018-07-23T23:22:40.576Z,97108.00
2018-07-23T23:25:22.182Z,97107.00
2018-07-23T23:28:05.720Z,97107.00
2018-07-23T23:30:48.998Z,97117.00
2018-07-23T23:33:30.599Z,97109.00
2018-07-23T23:36:12.182Z,97116.00
2018-07-23T23:38:53.634Z,97108.00
2018-07-23T23:41:35.058Z,97111.00
2018-07-23T23:44:17.489Z,97103.00
2018-07-23T23:46:59.049Z,97112.00
2018-07-23T23:49:40.570Z,97106.00
2018-07-23T23:52:22.105Z,97104.00
2018-07-23T23:55:03.533Z,97107.00
2018-07-23T23:57:47.424Z,97109.00
